sensor_id;sensor_type;location;lat;lon;timestamp;temperature;humidity
25360;DHT22;13311;51.386;0.016;2023-02-15T00:04:47;6.50;93.90
25360;DHT22;13311;51.386;0.016;2023-02-15T00:09:48;6.40;93.80
25360;DHT22;13311;51.386;0.016;2023-02-15T00:14:48;6.40;93.80
25360;DHT22;13311;51.386;0.016;2023-02-15T00:19:49;6.40;93.60
25360;DHT22;13311;51.386;0.016;2023-02-15T00:24:50;6.30;93.60
25360;DHT22;13311;51.386;0.016;2023-02-15T00:29:50;6.30;93.90
25360;DHT22;13311;51.386;0.016;2023-02-15T00:34:51;6.20;94.00
25360;DHT22;13311;51.386;0.016;2023-02-15T00:39:52;6.20;94.00
25360;DHT22;13311;51.386;0.016;2023-02-15T00:44:52;6.20;93.80
25360;DHT22;13311;51.386;0.016;2023-02-15T00:49:53;6.10;93.90
25360;DHT22;13311;51.386;0.016;2023-02-15T00:54:54;6.10;93.90
25360;DHT22;13311;51.386;0.016;2023-02-15T00:59:55;6.10;94.00
25360;DHT22;13311;51.386;0.016;2023-02-15T01:04:55;6.10;94.00
25360;DHT22;13311;51.386;0.016;2023-02-15T01:09:56;6.00;94.10
25360;DHT22;13311;51.386;0.016;2023-02-15T01:14:57;6.10;94.40
25360;DHT22;13311;51.386;0.016;2023-02-15T01:19:57;6.10;94.50
25360;DHT22;13311;51.386;0.016;2023-02-15T01:24:59;6.10;94.50
25360;DHT22;13311;51.386;0.016;2023-02-15T01:30:01;6.20;94.50
25360;DHT22;13311;51.386;0.016;2023-02-15T01:35:03;6.20;94.30
25360;DHT22;13311;51.386;0.016;2023-02-15T01:40:07;6.20;94.50
25360;DHT22;13311;51.386;0.016;2023-02-15T01:45:25;6.20;94.50
25360;DHT22;13311;51.386;0.016;2023-02-15T01:55:48;6.20;95.10
25360;DHT22;13311;51.386;0.016;2023-02-15T02:00:53;6.20;95.40
25360;DHT22;13311;51.386;0.016;2023-02-15T02:05:55;6.30;95.40
25360;DHT22;13311;51.386;0.016;2023-02-15T02:10:55;6.30;95.60
25360;DHT22;13311;51.386;0.016;2023-02-15T02:16:10;6.30;95.20
25360;DHT22;13311;51.386;0.016;2023-02-15T02:27:21;6.30;95.10
25360;DHT22;13311;51.386;0.016;2023-02-15T02:38:28;6.30;95.60
25360;DHT22;13311;51.386;0.016;2023-02-15T02:43:47;6.40;95.80
25360;DHT22;13311;51.386;0.016;2023-02-15T02:49:14;6.40;95.80
25360;DHT22;13311;51.386;0.016;2023-02-15T02:54:15;6.30;95.70
25360;DHT22;13311;51.386;0.016;2023-02-15T02:59:20;6.40;96.10
25360;DHT22;13311;51.386;0.016;2023-02-15T03:04:26;6.40;95.80
25360;DHT22;13311;51.386;0.016;2023-02-15T03:09:35;6.40;95.70
25360;DHT22;13311;51.386;0.016;2023-02-15T03:14:45;6.40;95.60
25360;DHT22;13311;51.386;0.016;2023-02-15T03:19:51;6.30;95.60
25360;DHT22;13311;51.386;0.016;2023-02-15T03:25:02;6.20;95.60
25360;DHT22;13311;51.386;0.016;2023-02-15T03:30:05;6.20;95.50
25360;DHT22;13311;51.386;0.016;2023-02-15T03:35:07;6.20;95.60
25360;DHT22;13311;51.386;0.016;2023-02-15T03:45:51;6.10;95.40
25360;DHT22;13311;51.386;0.016;2023-02-15T03:51:00;6.00;95.40
25360;DHT22;13311;51.386;0.016;2023-02-15T03:56:21;5.90;95.40
25360;DHT22;13311;51.386;0.016;2023-02-15T04:07:00;5.80;95.40
25360;DHT22;13311;51.386;0.016;2023-02-15T04:12:01;5.80;95.40
25360;DHT22;13311;51.386;0.016;2023-02-15T04:17:05;5.80;95.40
25360;DHT22;13311;51.386;0.016;2023-02-15T04:22:06;5.70;95.60
25360;DHT22;13311;51.386;0.016;2023-02-15T04:27:26;5.70;95.70
25360;DHT22;13311;51.386;0.016;2023-02-15T04:32:26;5.70;95.80
25360;DHT22;13311;51.386;0.016;2023-02-15T04:37:27;5.70;95.90
25360;DHT22;13311;51.386;0.016;2023-02-15T04:42:28;5.70;95.80
25360;DHT22;13311;51.386;0.016;2023-02-15T04:47:29;5.80;95.90
25360;DHT22;13311;51.386;0.016;2023-02-15T04:52:30;5.90;96.20
25360;DHT22;13311;51.386;0.016;2023-02-15T04:57:30;6.00;96.70
25360;DHT22;13311;51.386;0.016;2023-02-15T05:02:31;6.20;97.00
25360;DHT22;13311;51.386;0.016;2023-02-15T05:07:32;6.20;97.20
25360;DHT22;13311;51.386;0.016;2023-02-15T05:12:32;6.30;97.20
25360;DHT22;13311;51.386;0.016;2023-02-15T05:17:33;6.50;97.60
25360;DHT22;13311;51.386;0.016;2023-02-15T05:22:34;6.60;97.70
25360;DHT22;13311;51.386;0.016;2023-02-15T05:27:35;6.80;97.90
25360;DHT22;13311;51.386;0.016;2023-02-15T05:32:54;6.80;97.90
25360;DHT22;13311;51.386;0.016;2023-02-15T05:37:55;6.90;98.20
25360;DHT22;13311;51.386;0.016;2023-02-15T05:42:56;6.80;97.80
25360;DHT22;13311;51.386;0.016;2023-02-15T05:47:57;6.80;97.80
25360;DHT22;13311;51.386;0.016;2023-02-15T05:52:58;6.90;97.80
25360;DHT22;13311;51.386;0.016;2023-02-15T05:57:59;6.90;97.90
25360;DHT22;13311;51.386;0.016;2023-02-15T06:03:00;6.90;97.90
25360;DHT22;13311;51.386;0.016;2023-02-15T06:08:00;7.00;98.30
25360;DHT22;13311;51.386;0.016;2023-02-15T06:13:01;7.10;99.00
25360;DHT22;13311;51.386;0.016;2023-02-15T06:18:02;7.30;99.70
25360;DHT22;13311;51.386;0.016;2023-02-15T06:23:03;7.40;99.90
25360;DHT22;13311;51.386;0.016;2023-02-15T06:28:03;7.60;99.90
25360;DHT22;13311;51.386;0.016;2023-02-15T06:33:04;7.70;99.90
25360;DHT22;13311;51.386;0.016;2023-02-15T06:38:05;7.70;99.70
25360;DHT22;13311;51.386;0.016;2023-02-15T06:43:06;7.80;99.60
25360;DHT22;13311;51.386;0.016;2023-02-15T06:48:06;7.80;99.50
25360;DHT22;13311;51.386;0.016;2023-02-15T06:53:08;7.80;99.50
25360;DHT22;13311;51.386;0.016;2023-02-15T06:58:09;7.80;99.40
25360;DHT22;13311;51.386;0.016;2023-02-15T07:03:09;7.80;99.40
25360;DHT22;13311;51.386;0.016;2023-02-15T07:08:13;7.80;99.50
25360;DHT22;13311;51.386;0.016;2023-02-15T07:13:14;7.90;99.50
25360;DHT22;13311;51.386;0.016;2023-02-15T07:18:14;8.00;99.10
25360;DHT22;13311;51.386;0.016;2023-02-15T07:23:15;8.00;98.80
25360;DHT22;13311;51.386;0.016;2023-02-15T07:28:16;8.10;98.70
25360;DHT22;13311;51.386;0.016;2023-02-15T07:33:17;8.10;98.50
25360;DHT22;13311;51.386;0.016;2023-02-15T07:38:25;8.00;98.30
25360;DHT22;13311;51.386;0.016;2023-02-15T07:43:27;8.00;98.50
25360;DHT22;13311;51.386;0.016;2023-02-15T07:48:29;8.10;98.60
25360;DHT22;13311;51.386;0.016;2023-02-15T07:53:30;8.30;98.60
25360;DHT22;13311;51.386;0.016;2023-02-15T07:58:31;8.30;98.60
25360;DHT22;13311;51.386;0.016;2023-02-15T08:03:51;8.40;98.70
25360;DHT22;13311;51.386;0.016;2023-02-15T08:08:53;8.50;98.80
25360;DHT22;13311;51.386;0.016;2023-02-15T08:24:26;8.60;98.60
25360;DHT22;13311;51.386;0.016;2023-02-15T08:29:30;8.80;98.60
25360;DHT22;13311;51.386;0.016;2023-02-15T08:34:35;8.90;98.50
25360;DHT22;13311;51.386;0.016;2023-02-15T08:39:37;9.10;98.50
25360;DHT22;13311;51.386;0.016;2023-02-15T08:44:38;9.20;98.40
25360;DHT22;13311;51.386;0.016;2023-02-15T08:49:39;9.30;98.30
25360;DHT22;13311;51.386;0.016;2023-02-15T08:54:40;9.50;98.40
25360;DHT22;13311;51.386;0.016;2023-02-15T08:59:41;9.70;98.20
25360;DHT22;13311;51.386;0.016;2023-02-15T09:04:41;9.90;98.20
25360;DHT22;13311;51.386;0.016;2023-02-15T09:09:42;10.10;98.20
25360;DHT22;13311;51.386;0.016;2023-02-15T09:14:42;10.50;98.20
25360;DHT22;13311;51.386;0.016;2023-02-15T09:19:43;10.90;98.10
25360;DHT22;13311;51.386;0.016;2023-02-15T09:24:44;11.40;97.20
25360;DHT22;13311;51.386;0.016;2023-02-15T09:29:45;11.90;96.70
25360;DHT22;13311;51.386;0.016;2023-02-15T09:34:45;12.40;95.30
25360;DHT22;13311;51.386;0.016;2023-02-15T09:39:46;12.70;94.80
25360;DHT22;13311;51.386;0.016;2023-02-15T09:56:19;13.70;93.50
25360;DHT22;13311;51.386;0.016;2023-02-15T10:07:45;13.90;92.90
25360;DHT22;13311;51.386;0.016;2023-02-15T10:13:34;14.10;92.40
25360;DHT22;13311;51.386;0.016;2023-02-15T10:24:05;14.70;91.50
25360;DHT22;13311;51.386;0.016;2023-02-15T10:34:39;15.00;90.80
25360;DHT22;13311;51.386;0.016;2023-02-15T10:51:04;15.20;90.60
25360;DHT22;13311;51.386;0.016;2023-02-15T11:07:35;15.50;90.20
25360;DHT22;13311;51.386;0.016;2023-02-15T11:12:41;15.60;90.00
25360;DHT22;13311;51.386;0.016;2023-02-15T11:17:56;15.70;90.10
25360;DHT22;13311;51.386;0.016;2023-02-15T17:58:18;12.00;93.90
25360;DHT22;13311;51.386;0.016;2023-02-15T18:03:19;13.30;92.00
25360;DHT22;13311;51.386;0.016;2023-02-15T18:08:39;13.40;91.60
25360;DHT22;13311;51.386;0.016;2023-02-15T18:13:58;13.50;91.60
25360;DHT22;13311;51.386;0.016;2023-02-15T18:19:03;13.50;91.40
25360;DHT22;13311;51.386;0.016;2023-02-15T18:24:04;13.50;91.40
25360;DHT22;13311;51.386;0.016;2023-02-15T18:29:05;13.50;91.40
25360;DHT22;13311;51.386;0.016;2023-02-15T18:34:27;13.50;91.40
25360;DHT22;13311;51.386;0.016;2023-02-15T18:39:37;13.50;91.40
25360;DHT22;13311;51.386;0.016;2023-02-15T18:44:39;13.60;91.50
25360;DHT22;13311;51.386;0.016;2023-02-15T18:49:40;13.70;91.50
25360;DHT22;13311;51.386;0.016;2023-02-15T18:54:40;13.60;91.80
25360;DHT22;13311;51.386;0.016;2023-02-15T18:59:42;13.60;92.00
25360;DHT22;13311;51.386;0.016;2023-02-15T19:04:43;13.50;92.20
25360;DHT22;13311;51.386;0.016;2023-02-15T19:09:48;13.40;92.60
25360;DHT22;13311;51.386;0.016;2023-02-15T19:14:50;13.30;92.90
25360;DHT22;13311;51.386;0.016;2023-02-15T19:19:52;13.30;93.20
25360;DHT22;13311;51.386;0.016;2023-02-15T19:24:55;13.20;93.40
25360;DHT22;13311;51.386;0.016;2023-02-15T19:29:59;13.30;93.40
25360;DHT22;13311;51.386;0.016;2023-02-15T19:35:02;13.30;93.70
25360;DHT22;13311;51.386;0.016;2023-02-15T19:40:04;13.20;93.90
25360;DHT22;13311;51.386;0.016;2023-02-15T19:45:16;13.30;94.00
25360;DHT22;13311;51.386;0.016;2023-02-15T19:50:20;13.40;93.90
25360;DHT22;13311;51.386;0.016;2023-02-15T20:00:32;13.50;93.90
25360;DHT22;13311;51.386;0.016;2023-02-15T20:05:34;13.50;94.00
25360;DHT22;13311;51.386;0.016;2023-02-15T20:10:37;13.40;94.20
25360;DHT22;13311;51.386;0.016;2023-02-15T20:15:38;13.50;94.30
25360;DHT22;13311;51.386;0.016;2023-02-15T20:20:46;13.50;94.30
25360;DHT22;13311;51.386;0.016;2023-02-15T20:25:49;13.50;94.60
25360;DHT22;13311;51.386;0.016;2023-02-15T20:30:50;13.50;95.00
25360;DHT22;13311;51.386;0.016;2023-02-15T20:35:52;13.30;95.60
25360;DHT22;13311;51.386;0.016;2023-02-15T20:40:53;13.30;96.10
25360;DHT22;13311;51.386;0.016;2023-02-15T20:46:13;13.10;96.80
25360;DHT22;13311;51.386;0.016;2023-02-15T20:51:19;13.20;96.50
25360;DHT22;13311;51.386;0.016;2023-02-15T20:56:23;13.30;96.60
25360;DHT22;13311;51.386;0.016;2023-02-15T21:01:24;13.40;96.90
25360;DHT22;13311;51.386;0.016;2023-02-15T21:06:24;13.40;96.80
25360;DHT22;13311;51.386;0.016;2023-02-15T21:11:25;13.40;97.00
25360;DHT22;13311;51.386;0.016;2023-02-15T21:16:26;13.30;97.30
25360;DHT22;13311;51.386;0.016;2023-02-15T21:21:27;13.30;97.40
25360;DHT22;13311;51.386;0.016;2023-02-15T21:26:28;13.40;97.40
25360;DHT22;13311;51.386;0.016;2023-02-15T21:31:28;13.30;97.60
25360;DHT22;13311;51.386;0.016;2023-02-15T21:36:30;13.30;97.90
25360;DHT22;13311;51.386;0.016;2023-02-15T21:41:31;13.20;98.00
25360;DHT22;13311;51.386;0.016;2023-02-15T21:46:50;13.30;97.80
25360;DHT22;13311;51.386;0.016;2023-02-15T21:52:13;13.30;97.90
25360;DHT22;13311;51.386;0.016;2023-02-15T21:57:17;13.20;98.10
25360;DHT22;13311;51.386;0.016;2023-02-15T22:02:27;13.20;98.10
25360;DHT22;13311;51.386;0.016;2023-02-15T22:07:29;13.10;98.40
25360;DHT22;13311;51.386;0.016;2023-02-15T22:12:29;13.10;98.40
25360;DHT22;13311;51.386;0.016;2023-02-15T22:17:30;13.00;98.70
25360;DHT22;13311;51.386;0.016;2023-02-15T22:22:33;13.10;98.50
25360;DHT22;13311;51.386;0.016;2023-02-15T22:27:38;13.10;98.60
25360;DHT22;13311;51.386;0.016;2023-02-15T22:32:39;13.10;98.80
25360;DHT22;13311;51.386;0.016;2023-02-15T22:37:40;13.10;98.80
25360;DHT22;13311;51.386;0.016;2023-02-15T22:42:44;13.30;98.10
25360;DHT22;13311;51.386;0.016;2023-02-15T22:47:48;13.20;98.70
25360;DHT22;13311;51.386;0.016;2023-02-15T22:52:50;13.30;98.60
25360;DHT22;13311;51.386;0.016;2023-02-15T22:57:53;13.30;98.10
25360;DHT22;13311;51.386;0.016;2023-02-15T23:02:54;13.30;98.60
25360;DHT22;13311;51.386;0.016;2023-02-15T23:07:55;13.30;98.80
25360;DHT22;13311;51.386;0.016;2023-02-15T23:12:59;13.30;98.80
25360;DHT22;13311;51.386;0.016;2023-02-15T23:23:40;13.40;98.40
25360;DHT22;13311;51.386;0.016;2023-02-15T23:28:44;13.40;98.50
25360;DHT22;13311;51.386;0.016;2023-02-15T23:33:46;13.30;98.40
25360;DHT22;13311;51.386;0.016;2023-02-15T23:38:47;13.30;98.50
25360;DHT22;13311;51.386;0.016;2023-02-15T23:44:01;13.20;98.50
25360;DHT22;13311;51.386;0.016;2023-02-15T23:49:02;13.20;98.70
25360;DHT22;13311;51.386;0.016;2023-02-15T23:54:15;13.20;98.70
25360;DHT22;13311;51.386;0.016;2023-02-15T23:59:22;13.20;98.90
